Time;durP1;ratioP1;P1;durP2;ratioP2;P2;SDS_P1;SDS_P2;PMS_P1;PMS_P2;Temp;Humidity;BMP_temperature;BMP_pressure;BME280_temperature;BME280_humidity;BME280_pressure;Samples;Min_cycle;Max_cycle;Signal;HPM_P1;HPM_P2
2023/12/25 00:01:27;;;;;;;6.13;0.95;;;12.70;99.90;;;;;;5029640;28;20500;-91
2023/12/25 00:03:52;;;;;;;10.50;2.05;;;12.70;99.90;;;;;;5029363;28;20095;-92
2023/12/25 00:06:19;;;;;;;11.15;1.77;;;12.70;99.90;;;;;;5011948;28;20068;-91
2023/12/25 00:08:44;;;;;;;6.43;1.80;;;12.70;99.90;;;;;;5012666;28;20029;-92
2023/12/25 00:11:10;;;;;;;5.30;1.55;;;12.70;99.90;;;;;;5012813;28;20098;-91
2023/12/25 00:13:36;;;;;;;4.88;1.23;;;12.70;99.90;;;;;;4995902;28;20489;-92
2023/12/25 00:16:02;;;;;;;9.65;1.75;;;12.70;99.90;;;;;;5012604;28;20048;-92
2023/12/25 00:18:27;;;;;;;7.35;1.48;;;12.60;99.90;;;;;;4996232;28;20128;-91
2023/12/25 00:20:53;;;;;;;7.63;1.58;;;12.60;99.90;;;;;;5012661;28;20047;-92
2023/12/25 00:23:18;;;;;;;5.00;1.52;;;12.60;99.90;;;;;;5012277;28;20049;-91
2023/12/25 00:25:44;;;;;;;10.85;1.77;;;12.60;99.90;;;;;;4995919;28;20042;-92
2023/12/25 00:28:09;;;;;;;9.32;1.65;;;12.60;99.90;;;;;;5029959;28;20124;-92
2023/12/25 00:30:35;;;;;;;4.75;1.08;;;12.60;99.90;;;;;;4995780;28;20068;-92
2023/12/25 00:33:01;;;;;;;7.95;1.23;;;12.50;99.90;;;;;;4995867;28;20034;-91
2023/12/25 00:35:26;;;;;;;3.33;0.90;;;12.50;99.90;;;;;;5012498;28;20045;-91
2023/12/25 00:37:52;;;;;;;5.72;1.83;;;12.50;99.90;;;;;;4996217;28;20076;-91
2023/12/25 00:40:18;;;;;;;16.95;4.03;;;12.50;99.90;;;;;;4995621;28;20044;-91
2023/12/25 00:42:43;;;;;;;3.75;1.08;;;12.50;99.90;;;;;;4995280;28;20044;-91
2023/12/25 00:45:09;;;;;;;4.75;1.25;;;12.50;99.90;;;;;;4995517;28;20099;-91
2023/12/25 00:47:35;;;;;;;7.97;1.58;;;12.50;99.90;;;;;;5012512;28;20457;-91
2023/12/25 00:50:02;;;;;;;9.07;1.42;;;12.40;99.90;;;;;;5012142;28;20500;-90
2023/12/25 00:52:27;;;;;;;5.63;1.25;;;12.40;99.90;;;;;;5012425;28;20463;-90
2023/12/25 00:54:54;;;;;;;12.38;1.50;;;12.40;99.90;;;;;;4995659;28;20111;-91
2023/12/25 00:57:20;;;;;;;6.60;1.85;;;12.30;99.90;;;;;;5012009;28;20077;-91
2023/12/25 00:59:46;;;;;;;3.15;0.55;;;12.30;99.90;;;;;;5013689;28;20041;-91
2023/12/25 01:02:11;;;;;;;8.77;2.13;;;12.30;99.90;;;;;;5015880;28;20046;-91
2023/12/25 01:04:37;;;;;;;10.85;1.85;;;12.20;99.90;;;;;;5033227;28;20124;-92
2023/12/25 01:07:03;;;;;;;7.95;1.58;;;12.20;99.90;;;;;;4999468;28;20049;-90
2023/12/25 01:09:29;;;;;;;7.05;1.25;;;12.20;99.90;;;;;;5015761;28;20060;-91
2023/12/25 01:11:54;;;;;;;8.23;1.60;;;12.10;99.90;;;;;;5015690;28;20099;-91
2023/12/25 01:14:20;;;;;;;9.60;1.58;;;12.20;99.90;;;;;;4999004;28;20622;-91
2023/12/25 01:16:46;;;;;;;11.85;2.42;;;12.10;99.90;;;;;;5015961;28;20045;-91
2023/12/25 01:19:12;;;;;;;6.82;1.30;;;12.10;99.90;;;;;;4999391;28;20416;-90
2023/12/25 01:21:38;;;;;;;15.90;2.15;;;12.10;99.90;;;;;;4999392;28;20033;-91
2023/12/25 01:24:04;;;;;;;8.65;1.77;;;12.10;99.90;;;;;;5014909;28;20063;-92
2023/12/25 01:26:32;;;;;;;12.93;1.33;;;12.10;99.90;;;;;;5015791;28;20049;-91
2023/12/25 01:28:58;;;;;;;6.45;1.20;;;12.00;99.90;;;;;;4998845;28;20041;-91
2023/12/25 01:31:23;;;;;;;4.82;1.45;;;12.00;99.90;;;;;;5015420;28;20049;-90
2023/12/25 01:33:49;;;;;;;7.90;1.48;;;12.00;99.90;;;;;;4998885;28;20048;-90
2023/12/25 01:36:15;;;;;;;6.10;1.10;;;12.00;99.90;;;;;;4998924;28;20042;-91
2023/12/25 01:38:41;;;;;;;4.45;1.00;;;12.00;99.90;;;;;;4999330;28;20042;-91
2023/12/25 01:41:06;;;;;;;8.02;1.25;;;12.00;99.90;;;;;;4999065;28;20404;-91
2023/12/25 01:43:32;;;;;;;7.75;1.33;;;12.00;99.90;;;;;;4998316;28;20131;-91
2023/12/25 01:45:58;;;;;;;11.27;2.22;;;12.00;99.90;;;;;;5015172;28;20052;-91
2023/12/25 01:48:24;;;;;;;12.00;1.98;;;12.00;99.90;;;;;;4999048;28;20037;-91
2023/12/25 01:50:51;;;;;;;8.75;1.60;;;12.00;99.90;;;;;;5013043;28;20116;-92
2023/12/25 01:53:17;;;;;;;4.20;1.40;;;12.00;99.90;;;;;;5011303;28;20052;-90
2023/12/25 01:55:43;;;;;;;7.18;2.03;;;12.00;99.90;;;;;;5012527;28;20057;-91
2023/12/25 01:58:08;;;;;;;13.13;3.08;;;12.00;99.90;;;;;;4998178;28;20076;-91
2023/12/25 02:00:34;;;;;;;8.82;2.08;;;12.00;99.90;;;;;;4998821;28;20136;-91
2023/12/25 02:03:00;;;;;;;15.82;3.15;;;12.00;99.90;;;;;;4998247;28;20076;-90
2023/12/25 02:05:27;;;;;;;7.43;1.95;;;12.00;99.90;;;;;;4998503;28;20069;-91
2023/12/25 02:07:53;;;;;;;4.75;1.10;;;12.00;99.90;;;;;;4998522;28;20072;-91
2023/12/25 02:10:27;;;;;;;4.22;0.90;;;11.90;99.90;;;;;;5014533;28;20072;-90
2023/12/25 02:12:53;;;;;;;5.20;1.27;;;12.00;99.90;;;;;;4997898;28;20444;-91
2023/12/25 02:15:19;;;;;;;5.55;1.35;;;11.90;99.90;;;;;;5014523;28;20497;-90
2023/12/25 02:17:45;;;;;;;4.78;1.65;;;11.90;99.90;;;;;;4998284;28;20042;-91
2023/12/25 02:20:14;;;;;;;5.50;1.23;;;11.90;99.90;;;;;;4998527;28;20047;-91
2023/12/25 02:22:41;;;;;;;4.22;0.88;;;11.90;99.90;;;;;;5014116;28;20037;-90
2023/12/25 02:25:17;;;;;;;3.20;0.93;;;11.90;99.90;;;;;;4997696;28;20045;-90
2023/12/25 02:27:43;;;;;;;5.70;1.35;;;11.90;99.90;;;;;;4997925;28;20042;-91
2023/12/25 02:30:08;;;;;;;4.93;1.00;;;11.80;99.90;;;;;;5014687;28;20386;-91
2023/12/25 02:32:34;;;;;;;6.20;1.20;;;11.80;99.90;;;;;;5014025;28;20531;-90
2023/12/25 02:35:00;;;;;;;4.75;0.77;;;11.80;99.90;;;;;;4998028;28;20048;-90
2023/12/25 02:37:25;;;;;;;5.07;1.30;;;11.80;99.90;;;;;;5031853;28;20041;-91
2023/12/25 02:39:51;;;;;;;4.85;1.10;;;11.80;99.90;;;;;;4997679;28;20041;-91
2023/12/25 02:42:17;;;;;;;5.05;0.93;;;11.80;99.90;;;;;;5014232;28;20408;-91
2023/12/25 02:44:42;;;;;;;13.95;3.00;;;11.80;99.90;;;;;;5013863;28;20559;-90
2023/12/25 02:47:08;;;;;;;5.88;1.00;;;11.80;99.90;;;;;;5014092;28;20045;-90
2023/12/25 02:49:33;;;;;;;7.90;1.25;;;11.80;99.90;;;;;;5031925;28;20084;-90
2023/12/25 02:51:59;;;;;;;10.75;2.33;;;11.80;99.90;;;;;;5013916;28;20073;-90
2023/12/25 02:54:25;;;;;;;5.32;1.95;;;11.70;99.90;;;;;;5013497;28;20060;-90
2023/12/25 02:56:50;;;;;;;3.80;1.13;;;11.70;99.90;;;;;;5013907;28;20048;-91
2023/12/25 02:59:16;;;;;;;7.43;0.95;;;11.70;99.90;;;;;;4997687;28;20050;-90
2023/12/25 03:01:41;;;;;;;8.45;1.60;;;11.70;99.90;;;;;;4997976;28;20418;-90
2023/12/25 03:04:07;;;;;;;7.18;1.05;;;11.80;99.90;;;;;;5013156;28;20500;-91
2023/12/25 03:06:33;;;;;;;5.60;1.42;;;11.80;99.90;;;;;;4997218;28;20127;-91
2023/12/25 03:08:58;;;;;;;6.43;1.00;;;11.80;99.90;;;;;;4997120;28;20394;-90
2023/12/25 03:11:24;;;;;;;7.22;1.45;;;11.70;99.90;;;;;;4997564;28;20079;-91
2023/12/25 03:13:50;;;;;;;9.95;1.48;;;11.80;99.90;;;;;;5018460;28;20091;-88
2023/12/25 03:16:18;;;;;;;7.75;0.90;;;11.70;99.90;;;;;;5040009;28;20034;-91
2023/12/25 03:18:44;;;;;;;3.30;0.82;;;11.70;99.90;;;;;;5010211;28;20033;-90
2023/12/25 03:21:10;;;;;;;7.78;1.00;;;11.70;99.90;;;;;;4997689;28;20541;-90
2023/12/25 03:23:35;;;;;;;3.70;0.93;;;11.70;99.90;;;;;;4996756;28;20455;-90
2023/12/25 03:26:01;;;;;;;4.57;0.93;;;11.70;99.90;;;;;;5005099;28;20056;-91
2023/12/25 03:28:27;;;;;;;7.47;1.27;;;11.70;99.90;;;;;;4998080;28;20468;-91
2023/12/25 03:30:54;;;;;;;9.50;1.33;;;11.70;99.90;;;;;;5031437;28;20041;-91
2023/12/25 03:33:20;;;;;;;3.53;1.30;;;11.70;99.90;;;;;;5005516;28;20049;-91
2023/12/25 03:35:45;;;;;;;3.83;0.77;;;11.70;99.90;;;;;;4996998;28;20052;-91
2023/12/25 03:38:14;;;;;;;6.95;1.27;;;11.70;99.90;;;;;;4996890;28;20042;-91
2023/12/25 03:40:39;;;;;;;5.57;0.90;;;11.80;99.90;;;;;;5013106;28;20052;-90
2023/12/25 03:43:05;;;;;;;3.15;0.93;;;11.80;99.90;;;;;;5012599;28;20041;-92
2023/12/25 03:45:31;;;;;;;8.73;2.58;;;11.80;99.90;;;;;;4996674;28;20033;-91
2023/12/25 03:47:57;;;;;;;3.08;0.63;;;11.80;99.90;;;;;;5013114;28;20507;-92
2023/12/25 03:50:22;;;;;;;11.63;1.48;;;11.80;99.90;;;;;;5012817;28;20045;-92
2023/12/25 03:52:48;;;;;;;8.35;1.00;;;11.80;99.90;;;;;;5030252;28;20080;-92
2023/12/25 03:55:14;;;;;;;4.43;0.70;;;11.70;99.90;;;;;;5012987;28;20107;-92
2023/12/25 03:57:39;;;;;;;3.85;0.90;;;11.70;99.90;;;;;;4996570;28;20563;-92
2023/12/25 04:00:06;;;;;;;5.82;1.08;;;11.70;99.90;;;;;;5030510;28;20113;-92
2023/12/25 04:02:32;;;;;;;3.22;0.77;;;11.70;99.90;;;;;;5012610;28;20068;-91
2023/12/25 04:04:57;;;;;;;4.60;1.40;;;11.70;99.90;;;;;;5012596;28;20076;-91
2023/12/25 04:07:23;;;;;;;4.88;1.13;;;11.70;99.90;;;;;;5012590;28;20076;-92
2023/12/25 04:09:49;;;;;;;3.15;0.77;;;11.70;99.90;;;;;;4996549;28;20037;-91
2023/12/25 04:12:14;;;;;;;2.45;0.65;;;11.70;99.90;;;;;;5030257;28;20053;-92
2023/12/25 04:14:40;;;;;;;7.20;0.90;;;11.70;99.90;;;;;;5012174;28;20106;-92
2023/12/25 04:17:06;;;;;;;5.13;1.02;;;11.70;99.90;;;;;;5012529;28;20033;-92
2023/12/25 04:19:32;;;;;;;4.00;0.88;;;11.70;99.90;;;;;;5012537;28;20554;-91
2023/12/25 04:21:58;;;;;;;2.72;0.35;;;11.70;99.90;;;;;;4995797;28;20073;-91
2023/12/25 04:24:23;;;;;;;5.18;0.60;;;11.70;99.90;;;;;;4995651;28;20103;-91
2023/12/25 04:26:49;;;;;;;7.18;1.33;;;11.70;99.90;;;;;;5012474;28;20393;-91
2023/12/25 04:29:15;;;;;;;2.85;0.63;;;11.70;99.90;;;;;;4995848;28;20037;-91
2023/12/25 04:31:40;;;;;;;2.67;0.60;;;11.70;99.90;;;;;;4996073;28;20030;-92
2023/12/25 04:34:06;;;;;;;4.25;0.77;;;11.70;99.90;;;;;;4995183;28;20045;-91
2023/12/25 04:36:32;;;;;;;3.45;0.63;;;11.70;99.90;;;;;;4996015;28;20056;-91
2023/12/25 04:39:01;;;;;;;5.60;0.90;;;11.70;99.90;;;;;;5030095;28;20045;-91
2023/12/25 04:41:27;;;;;;;9.63;1.92;;;11.70;99.90;;;;;;5012309;28;20538;-91
2023/12/25 04:43:53;;;;;;;13.15;2.55;;;11.70;99.90;;;;;;4995283;28;20124;-91
2023/12/25 04:46:19;;;;;;;9.18;1.27;;;11.80;99.90;;;;;;4995670;28;20112;-91
2023/12/25 04:48:46;;;;;;;3.10;0.55;;;11.80;99.90;;;;;;4995619;28;20044;-91
2023/12/25 04:51:11;;;;;;;2.70;0.73;;;11.70;99.90;;;;;;4995569;28;20041;-91
2023/12/25 04:53:37;;;;;;;1.15;0.38;;;11.70;99.90;;;;;;5029698;28;20042;-91
2023/12/25 04:56:03;;;;;;;2.88;0.60;;;11.70;99.90;;;;;;4995544;28;20207;-91
2023/12/25 04:58:29;;;;;;;4.20;0.93;;;11.70;99.90;;;;;;4995770;28;20136;-90
2023/12/25 05:00:55;;;;;;;4.93;1.67;;;11.70;99.90;;;;;;5011990;28;20124;-91
2023/12/25 05:03:23;;;;;;;3.55;0.98;;;11.70;99.90;;;;;;5011957;28;20053;-91
2023/12/25 05:05:49;;;;;;;5.28;1.08;;;11.70;99.90;;;;;;4995657;28;20148;-91
2023/12/25 05:08:16;;;;;;;1.25;0.30;;;11.80;99.90;;;;;;4996079;28;20529;-91
2023/12/25 05:10:41;;;;;;;3.30;0.90;;;11.70;99.90;;;;;;5011990;28;20036;-91
2023/12/25 05:13:08;;;;;;;10.20;1.15;;;11.70;99.90;;;;;;4995320;28;20456;-91
2023/12/25 05:15:33;;;;;;;3.20;0.88;;;11.70;99.90;;;;;;5011903;28;20052;-91
2023/12/25 05:17:59;;;;;;;3.33;0.93;;;11.80;99.90;;;;;;5012055;28;20045;-91
2023/12/25 05:20:24;;;;;;;1.45;0.35;;;11.80;99.90;;;;;;5029709;28;20045;-91
2023/12/25 05:22:50;;;;;;;6.78;0.93;;;11.80;99.90;;;;;;4995544;28;20333;-91
2023/12/25 05:25:16;;;;;;;4.68;0.80;;;11.70;99.90;;;;;;5011682;28;20484;-91
2023/12/25 05:27:41;;;;;;;4.85;0.90;;;11.80;99.90;;;;;;4995561;28;20181;-91
2023/12/25 05:30:08;;;;;;;9.15;1.67;;;11.70;99.90;;;;;;4995347;28;20551;-91
2023/12/25 05:32:35;;;;;;;6.18;1.15;;;11.70;99.90;;;;;;4995288;28;20050;-91
2023/12/25 05:35:02;;;;;;;3.28;0.73;;;11.70;99.90;;;;;;4995582;28;20393;-91
2023/12/25 05:37:28;;;;;;;4.28;1.02;;;11.70;99.90;;;;;;5011783;28;20531;-90
2023/12/25 05:39:53;;;;;;;4.97;0.88;;;11.70;99.90;;;;;;4995093;28;20076;-91
2023/12/25 05:42:20;;;;;;;5.70;0.77;;;11.70;99.90;;;;;;4994875;28;20099;-91
2023/12/25 05:44:46;;;;;;;4.30;1.08;;;11.70;99.90;;;;;;5011234;28;20124;-91
2023/12/25 05:47:11;;;;;;;4.72;0.77;;;11.70;99.90;;;;;;4997230;28;20044;-90
2023/12/25 05:49:38;;;;;;;4.65;0.85;;;11.70;99.90;;;;;;5032890;28;20598;-91
2023/12/25 05:52:04;;;;;;;3.70;0.77;;;11.60;99.90;;;;;;5032748;28;20092;-91
2023/12/25 05:54:29;;;;;;;8.07;0.95;;;11.70;99.90;;;;;;5014485;28;20045;-92
2023/12/25 05:56:55;;;;;;;3.88;1.25;;;11.70;99.90;;;;;;4998553;28;20486;-91
2023/12/25 05:59:20;;;;;;;3.85;0.70;;;11.70;99.90;;;;;;4998521;28;20048;-91
2023/12/25 06:01:46;;;;;;;4.30;0.90;;;11.70;99.90;;;;;;4998447;28;20048;-90
2023/12/25 06:04:12;;;;;;;3.97;1.02;;;11.60;99.90;;;;;;5014735;28;20460;-91
2023/12/25 06:06:37;;;;;;;15.95;2.90;;;11.60;99.90;;;;;;5014898;28;20120;-91
2023/12/25 06:09:03;;;;;;;1.20;0.40;;;11.70;99.90;;;;;;5031896;28;20033;-91
2023/12/25 06:11:29;;;;;;;2.95;0.82;;;11.70;99.90;;;;;;5014069;28;20100;-91
2023/12/25 06:13:55;;;;;;;6.90;0.95;;;11.60;99.90;;;;;;4997915;28;20555;-91
2023/12/25 06:16:20;;;;;;;6.97;1.90;;;11.60;99.90;;;;;;5014421;28;20049;-91
2023/12/25 06:18:46;;;;;;;6.78;1.02;;;11.60;99.90;;;;;;4998259;28;20043;-91
2023/12/25 06:21:14;;;;;;;13.73;1.42;;;11.60;99.90;;;;;;5014313;28;20107;-92
2023/12/25 06:23:40;;;;;;;2.72;0.85;;;11.50;99.90;;;;;;4998032;28;20041;-92
2023/12/25 06:26:06;;;;;;;2.60;0.85;;;11.50;99.90;;;;;;5014291;28;20045;-91
2023/12/25 06:28:32;;;;;;;2.50;0.70;;;11.50;99.90;;;;;;5014427;28;20116;-91
2023/12/25 06:30:57;;;;;;;3.95;0.93;;;11.50;99.90;;;;;;4997578;28;20037;-91
2023/12/25 06:33:23;;;;;;;6.65;1.30;;;11.50;99.90;;;;;;5014113;28;20042;-92
2023/12/25 06:35:49;;;;;;;2.80;0.60;;;11.50;99.90;;;;;;5014692;28;20128;-91
2023/12/25 06:38:15;;;;;;;7.63;1.33;;;11.50;99.90;;;;;;5014139;28;20114;-92
2023/12/25 06:40:40;;;;;;;9.70;1.08;;;11.40;99.90;;;;;;5014175;28;20401;-91
2023/12/25 06:43:07;;;;;;;2.67;0.93;;;11.50;99.90;;;;;;5013687;28;20120;-91
2023/12/25 06:45:34;;;;;;;3.70;1.17;;;11.40;99.90;;;;;;4997498;28;20554;-91
2023/12/25 06:48:00;;;;;;;4.63;1.20;;;11.40;99.90;;;;;;4997838;28;20073;-92
2023/12/25 06:50:25;;;;;;;2.75;0.70;;;11.40;99.90;;;;;;5013883;28;20414;-91
2023/12/25 06:52:51;;;;;;;4.90;1.02;;;11.40;99.90;;;;;;5031050;28;20037;-92
2023/12/25 06:55:17;;;;;;;7.75;1.40;;;11.40;99.90;;;;;;4997588;28;20048;-91
2023/12/25 06:57:43;;;;;;;9.38;1.88;;;11.40;99.90;;;;;;5013023;28;20034;-92
2023/12/25 07:00:11;;;;;;;6.40;1.52;;;11.40;99.90;;;;;;5012994;28;20037;-91
2023/12/25 07:02:37;;;;;;;4.40;1.02;;;11.30;99.90;;;;;;4997173;28;20049;-92
2023/12/25 07:05:04;;;;;;;7.53;1.13;;;11.40;99.90;;;;;;5013087;28;20052;-91
2023/12/25 07:07:30;;;;;;;3.33;0.60;;;11.30;99.90;;;;;;4997096;28;20037;-91
2023/12/25 07:09:56;;;;;;;11.18;2.42;;;11.30;99.90;;;;;;5030252;28;20029;-91
2023/12/25 07:12:23;;;;;;;5.70;1.27;;;11.30;99.90;;;;;;5012460;28;20674;-91
2023/12/25 07:14:50;;;;;;;3.22;1.05;;;11.30;99.90;;;;;;4996076;28;20045;-92
2023/12/25 07:17:17;;;;;;;2.28;0.85;;;11.30;99.90;;;;;;5012642;28;20075;-91
2023/12/25 07:19:43;;;;;;;3.13;0.45;;;11.30;99.90;;;;;;4996600;28;20041;-92
2023/12/25 07:22:11;;;;;;;9.10;1.20;;;11.30;99.90;;;;;;5013269;28;20052;-92
2023/12/25 07:24:37;;;;;;;6.13;0.80;;;11.20;99.90;;;;;;4996683;28;20033;-91
2023/12/25 07:27:03;;;;;;;3.22;0.73;;;11.20;99.90;;;;;;5012527;28;20037;-91
2023/12/25 07:29:30;;;;;;;3.35;0.80;;;11.20;99.90;;;;;;5012505;28;20619;-91
2023/12/25 07:31:56;;;;;;;3.92;0.82;;;11.30;99.90;;;;;;5012890;28;20092;-92
2023/12/25 07:34:22;;;;;;;5.22;0.93;;;11.20;99.90;;;;;;5012265;28;20448;-91
2023/12/25 07:36:48;;;;;;;3.53;0.65;;;11.30;99.90;;;;;;5030095;28;20037;-91
2023/12/25 07:39:14;;;;;;;5.90;2.17;;;11.20;99.90;;;;;;5011602;28;20072;-92
2023/12/25 07:41:42;;;;;;;8.15;1.15;;;11.20;99.90;;;;;;5012221;28;20044;-92
2023/12/25 07:44:08;;;;;;;5.57;1.48;;;11.20;99.90;;;;;;4994613;28;20037;-92
2023/12/25 07:46:33;;;;;;;5.53;1.05;;;11.20;99.90;;;;;;5012616;28;20055;-91
2023/12/25 07:48:59;;;;;;;7.43;1.17;;;11.10;99.90;;;;;;4996386;28;20037;-91
2023/12/25 07:51:26;;;;;;;5.75;0.93;;;11.10;99.90;;;;;;5012971;28;20044;-92
2023/12/25 07:53:52;;;;;;;3.80;1.10;;;11.10;99.90;;;;;;5012451;28;20492;-92
2023/12/25 07:56:17;;;;;;;7.30;0.95;;;11.00;99.90;;;;;;5011798;28;20099;-91
2023/12/25 07:58:43;;;;;;;6.65;1.25;;;11.00;99.90;;;;;;4996220;28;20418;-92
2023/12/25 08:01:10;;;;;;;5.57;1.00;;;11.00;99.90;;;;;;5012417;28;20049;-92
2023/12/25 08:03:37;;;;;;;6.03;1.27;;;11.00;99.90;;;;;;4996168;28;20443;-93
2023/12/25 08:06:02;;;;;;;2.70;0.85;;;10.90;99.90;;;;;;5012117;28;20523;-91
2023/12/25 08:08:28;;;;;;;1.35;0.52;;;10.90;99.90;;;;;;5011015;28;20046;-91
2023/12/25 08:10:54;;;;;;;2.28;0.75;;;10.90;99.90;;;;;;5011446;28;20037;-92
2023/12/25 08:13:19;;;;;;;4.97;1.30;;;10.80;99.90;;;;;;5011604;28;20125;-92
2023/12/25 08:15:46;;;;;;;1.65;0.60;;;10.80;99.90;;;;;;4995421;28;20128;-92
2023/12/25 08:18:12;;;;;;;5.95;1.27;;;10.80;99.90;;;;;;4995576;28;20124;-91
2023/12/25 08:20:38;;;;;;;3.25;0.93;;;10.80;99.90;;;;;;4995928;28;20152;-91
2023/12/25 08:23:04;;;;;;;5.20;1.05;;;10.70;99.90;;;;;;4995650;28;20581;-92
2023/12/25 08:25:30;;;;;;;4.50;0.88;;;10.70;99.90;;;;;;4995291;28;20042;-91
2023/12/25 08:27:56;;;;;;;5.60;0.93;;;10.70;99.90;;;;;;4995314;28;20473;-91
2023/12/25 08:30:22;;;;;;;11.52;1.20;;;10.70;99.90;;;;;;4995043;28;20034;-91
2023/12/25 08:32:47;;;;;;;3.05;0.82;;;10.70;99.90;;;;;;5011010;28;20037;-91
2023/12/25 08:35:14;;;;;;;6.85;0.70;;;10.60;99.90;;;;;;5028879;28;20585;-91
2023/12/25 08:37:39;;;;;;;2.15;0.40;;;10.70;99.90;;;;;;5011239;28;20084;-91
2023/12/25 08:40:06;;;;;;;6.82;0.93;;;10.60;99.90;;;;;;4995850;28;20077;-90
2023/12/25 08:42:32;;;;;;;6.03;0.77;;;10.70;99.90;;;;;;5011666;28;20045;-92
2023/12/25 08:44:57;;;;;;;1.80;0.52;;;10.60;99.90;;;;;;4995019;28;20061;-91
2023/12/25 08:47:24;;;;;;;1.80;0.47;;;10.60;99.90;;;;;;5012099;28;20045;-91
2023/12/25 08:49:50;;;;;;;2.60;0.93;;;10.60;99.90;;;;;;4995755;28;20042;-91
2023/12/25 08:52:17;;;;;;;5.18;1.02;;;10.60;99.90;;;;;;4996086;28;20474;-91
2023/12/25 08:54:43;;;;;;;1.85;0.73;;;10.60;99.90;;;;;;4994929;28;20558;-91
2023/12/25 08:57:09;;;;;;;2.88;0.98;;;10.60;99.90;;;;;;4995706;28;20049;-91
2023/12/25 08:59:37;;;;;;;8.10;1.92;;;10.60;99.90;;;;;;4995287;28;20037;-91
2023/12/25 09:02:03;;;;;;;5.45;1.02;;;10.60;99.90;;;;;;4995506;28;20048;-91
2023/12/25 09:04:29;;;;;;;4.47;1.27;;;10.60;99.90;;;;;;5011162;28;20408;-91
2023/12/25 09:06:54;;;;;;;6.45;1.30;;;10.60;99.90;;;;;;4992033;28;20626;-91
2023/12/25 09:09:22;;;;;;;6.18;1.02;;;10.50;99.90;;;;;;5011587;28;20037;-90
2023/12/25 09:11:48;;;;;;;8.30;1.38;;;10.50;99.90;;;;;;4992545;28;20037;-91
2023/12/25 09:14:14;;;;;;;6.10;1.02;;;10.50;99.90;;;;;;5028865;28;20045;-91
2023/12/25 09:16:39;;;;;;;7.28;1.30;;;10.50;99.90;;;;;;5011876;28;20095;-90
2023/12/25 09:19:05;;;;;;;5.32;1.20;;;10.50;99.90;;;;;;5011384;28;20397;-91
2023/12/25 09:21:37;;;;;;;7.28;1.20;;;10.50;99.90;;;;;;4998166;28;20117;-91
2023/12/25 09:24:03;;;;;;;6.95;1.42;;;10.50;99.90;;;;;;5012004;28;20583;-91
2023/12/25 09:26:29;;;;;;;7.60;1.20;;;10.50;99.90;;;;;;4998723;28;20036;-90
2023/12/25 09:28:54;;;;;;;12.85;1.42;;;10.50;99.90;;;;;;4998223;28;20037;-91
2023/12/25 09:31:20;;;;;;;8.05;1.63;;;10.50;99.90;;;;;;4998569;28;20038;-90
2023/12/25 09:33:46;;;;;;;9.52;1.35;;;10.50;99.90;;;;;;4998350;28;20026;-90
2023/12/25 09:36:12;;;;;;;4.57;1.23;;;10.50;99.90;;;;;;5002132;28;20492;-90
2023/12/25 09:38:37;;;;;;;11.25;1.55;;;10.50;99.90;;;;;;5016155;28;20508;-90
2023/12/25 09:41:13;;;;;;;6.57;1.55;;;10.60;99.90;;;;;;5024568;28;20501;-89
2023/12/25 09:43:41;;;;;;;6.47;1.05;;;10.60;99.90;;;;;;5000952;28;20040;-90
2023/12/25 09:46:09;;;;;;;1.60;0.88;;;10.60;99.90;;;;;;5017664;28;20099;-90
2023/12/25 09:48:37;;;;;;;6.32;1.52;;;10.70;99.90;;;;;;5004979;28;20045;-91
2023/12/25 09:51:08;;;;;;;4.80;0.82;;;10.60;99.90;;;;;;5014381;28;20041;-91
2023/12/25 09:53:34;;;;;;;9.60;1.52;;;10.70;99.90;;;;;;5014112;28;20048;-91
2023/12/25 09:56:03;;;;;;;5.40;1.30;;;10.70;99.90;;;;;;4998282;28;20037;-91
2023/12/25 09:58:29;;;;;;;5.97;0.82;;;10.70;99.90;;;;;;4998195;28;20509;-91
2023/12/25 10:00:55;;;;;;;6.13;1.23;;;10.70;99.90;;;;;;5014517;28;20069;-91
2023/12/25 10:03:22;;;;;;;8.98;1.77;;;10.70;99.90;;;;;;5013489;28;20534;-91
2023/12/25 10:05:48;;;;;;;14.30;1.98;;;10.70;99.90;;;;;;5013502;28;20064;-91
2023/12/25 10:08:13;;;;;;;5.57;1.10;;;10.80;99.90;;;;;;5013691;28;20030;-91
2023/12/25 10:10:39;;;;;;;9.02;1.25;;;10.80;99.90;;;;;;5013746;28;20041;-91
2023/12/25 10:13:04;;;;;;;7.47;1.27;;;10.80;99.90;;;;;;5011852;28;20041;-91
2023/12/25 10:15:33;;;;;;;4.95;0.90;;;10.80;99.90;;;;;;4997213;28;20083;-92
2023/12/25 10:18:05;;;;;;;7.60;1.38;;;10.90;99.90;;;;;;4997684;28;20037;-93
2023/12/25 10:20:31;;;;;;;3.78;0.88;;;10.90;99.90;;;;;;4991272;28;20041;-91
2023/12/25 10:22:57;;;;;;;5.65;1.33;;;10.90;99.90;;;;;;4997684;28;20048;-91
2023/12/25 10:25:28;;;;;;;6.85;0.80;;;10.90;99.90;;;;;;4997477;28;20038;-92
2023/12/25 10:27:54;;;;;;;12.73;1.42;;;10.90;99.90;;;;;;4997506;28;20032;-91
2023/12/25 10:30:27;;;;;;;4.28;1.08;;;10.90;99.90;;;;;;4996920;28;20045;-92
2023/12/25 10:33:10;;;;;;;10.32;2.42;;;11.00;99.90;;;;;;5030552;28;20447;-91
2023/12/25 10:35:37;;;;;;;7.97;1.08;;;11.00;99.90;;;;;;5013619;28;20569;-91
2023/12/25 10:38:07;;;;;;;7.60;1.88;;;11.00;99.90;;;;;;5013466;28;20420;-92
2023/12/25 10:40:33;;;;;;;4.75;1.17;;;11.00;99.90;;;;;;5013575;28;20133;-92
2023/12/25 10:42:59;;;;;;;4.78;1.10;;;11.00;99.90;;;;;;4996050;28;20667;-92
2023/12/25 10:45:27;;;;;;;4.38;0.82;;;11.00;99.90;;;;;;4994213;28;20037;-92
2023/12/25 10:47:54;;;;;;;6.43;1.48;;;11.00;99.90;;;;;;4997738;28;20496;-92
2023/12/25 10:50:25;;;;;;;3.40;0.63;;;11.00;99.90;;;;;;4996211;28;20029;-92
2023/12/25 10:52:52;;;;;;;9.52;1.63;;;11.00;99.90;;;;;;5012830;28;20045;-92
2023/12/25 10:55:41;;;;;;;8.63;1.35;;;11.10;99.90;;;;;;4997208;28;20045;-92
2023/12/25 10:58:16;;;;;;;5.53;1.27;;;11.00;99.90;;;;;;5019679;28;20045;-92
2023/12/25 11:00:50;;;;;;;5.07;1.10;;;11.00;99.90;;;;;;5031607;28;20052;-91
2023/12/25 11:03:16;;;;;;;8.57;1.08;;;11.00;99.90;;;;;;5013349;28;20096;-92
2023/12/25 11:05:42;;;;;;;3.47;0.77;;;11.00;99.90;;;;;;4997624;28;20194;-92
2023/12/25 11:08:18;;;;;;;6.80;1.23;;;11.00;99.90;;;;;;5013898;28;20656;-92
2023/12/25 11:10:44;;;;;;;3.13;0.77;;;11.00;99.90;;;;;;5013576;28;20508;-92
2023/12/25 11:13:10;;;;;;;6.65;1.45;;;11.00;99.90;;;;;;4997149;28;20141;-92
2023/12/25 11:15:35;;;;;;;6.95;1.30;;;11.00;99.90;;;;;;5031082;28;20117;-91
2023/12/25 11:18:01;;;;;;;3.92;1.00;;;11.00;99.90;;;;;;5031288;28;20045;-92
2023/12/25 11:20:30;;;;;;;7.10;1.23;;;11.00;99.90;;;;;;5013305;28;20040;-91
2023/12/25 11:22:56;;;;;;;2.10;0.63;;;11.10;99.90;;;;;;4996726;28;20041;-92
2023/12/25 11:25:22;;;;;;;6.82;1.25;;;11.10;99.90;;;;;;4997013;28;20041;-92
2023/12/25 11:27:53;;;;;;;2.75;1.02;;;11.10;99.90;;;;;;5013369;28;20037;-92
2023/12/25 11:30:20;;;;;;;4.38;1.00;;;11.10;99.90;;;;;;4996907;28;20094;-92
2023/12/25 11:32:49;;;;;;;4.35;0.82;;;11.10;99.90;;;;;;5012767;28;20033;-92
2023/12/25 11:35:15;;;;;;;11.52;3.00;;;11.20;99.90;;;;;;5026176;28;20720;-92
2023/12/25 11:37:41;;;;;;;5.15;1.17;;;11.20;99.90;;;;;;4993710;28;20073;-91
2023/12/25 11:40:08;;;;;;;6.45;1.27;;;11.20;99.90;;;;;;4990974;28;20041;-92
2023/12/25 11:42:37;;;;;;;8.63;1.17;;;11.20;99.90;;;;;;5012364;28;20046;-92
2023/12/25 11:45:08;;;;;;;5.90;1.25;;;11.20;99.90;;;;;;5011339;28;20041;-92
2023/12/25 11:47:40;;;;;;;7.13;1.17;;;11.20;99.90;;;;;;5012739;28;20033;-92
2023/12/25 11:50:10;;;;;;;6.68;1.38;;;11.20;99.90;;;;;;5028724;28;20520;-92
2023/12/25 11:52:54;;;;;;;8.98;1.40;;;11.10;99.90;;;;;;4996404;28;20480;-92
2023/12/25 11:55:23;;;;;;;7.72;1.30;;;11.20;99.90;;;;;;4988231;28;20041;-92
2023/12/25 11:57:49;;;;;;;5.05;0.93;;;11.20;99.90;;;;;;4996882;28;20345;-92
2023/12/25 12:00:23;;;;;;;5.78;1.42;;;11.20;99.90;;;;;;5012324;28;20497;-91
2023/12/25 12:02:49;;;;;;;5.53;1.05;;;11.20;99.90;;;;;;5030561;28;20037;-92
2023/12/25 12:05:16;;;;;;;6.70;1.13;;;11.20;99.90;;;;;;4996288;28;20453;-92
2023/12/25 12:07:42;;;;;;;8.02;1.35;;;11.20;99.90;;;;;;4996247;28;20038;-92
2023/12/25 12:10:09;;;;;;;6.50;2.17;;;11.20;99.90;;;;;;4995955;28;20385;-92
2023/12/25 12:12:39;;;;;;;6.53;1.95;;;11.20;99.90;;;;;;4995904;28;20033;-92
2023/12/25 12:15:05;;;;;;;5.53;1.35;;;11.10;99.90;;;;;;5012401;28;20052;-92
2023/12/25 12:17:36;;;;;;;4.22;1.10;;;11.20;99.90;;;;;;5030080;28;20401;-91
2023/12/25 12:20:04;;;;;;;2.28;0.93;;;11.10;99.90;;;;;;4996067;28;20037;-91
2023/12/25 12:22:31;;;;;;;8.43;1.85;;;11.10;99.90;;;;;;4995909;28;20492;-90
2023/12/25 12:25:18;;;;;;;5.63;1.30;;;11.20;99.90;;;;;;4995573;28;20052;-90
2023/12/25 12:27:44;;;;;;;11.52;1.67;;;11.10;99.90;;;;;;5012446;28;20048;-91
2023/12/25 12:30:10;;;;;;;4.63;1.00;;;11.10;99.90;;;;;;5011377;28;20045;-91
2023/12/25 12:32:37;;;;;;;3.10;0.98;;;11.10;99.90;;;;;;5011127;28;20416;-90
2023/12/25 12:35:07;;;;;;;3.40;0.70;;;11.10;99.90;;;;;;5011503;28;20412;-91
2023/12/25 12:37:34;;;;;;;3.97;0.80;;;11.10;99.90;;;;;;5012150;28;20080;-91
2023/12/25 12:40:04;;;;;;;5.30;1.00;;;11.10;99.90;;;;;;4995509;28;20068;-91
2023/12/25 12:42:37;;;;;;;5.03;0.90;;;11.10;99.90;;;;;;4993968;28;20112;-90